sensor_id;sensor_type;location;lat;lon;timestamp;temperature;humidity
34201;DHT22;20469;55.638;37.670;2022-08-18T00:01:21;21.20;99.90
34201;DHT22;20469;55.638;37.670;2022-08-18T00:03:50;21.40;99.90
34201;DHT22;20469;55.638;37.670;2022-08-18T00:06:29;21.40;99.90
34201;DHT22;20469;55.638;37.670;2022-08-18T00:09:04;21.40;99.90
34201;DHT22;20469;55.638;37.670;2022-08-18T00:11:35;21.40;99.90
34201;DHT22;20469;55.638;37.670;2022-08-18T00:14:13;21.40;99.90
34201;DHT22;20469;55.638;37.670;2022-08-18T00:16:51;21.30;99.90
34201;DHT22;20469;55.638;37.670;2022-08-18T00:19:20;21.30;99.90
34201;DHT22;20469;55.638;37.670;2022-08-18T00:22:07;21.20;99.90
34201;DHT22;20469;55.638;37.670;2022-08-18T00:24:41;21.10;99.90
34201;DHT22;20469;55.638;37.670;2022-08-18T00:27:16;21.20;99.90
34201;DHT22;20469;55.638;37.670;2022-08-18T00:29:50;21.10;99.90
34201;DHT22;20469;55.638;37.670;2022-08-18T00:32:23;21.10;99.90
34201;DHT22;20469;55.638;37.670;2022-08-18T00:34:51;21.00;99.90
34201;DHT22;20469;55.638;37.670;2022-08-18T00:37:20;21.00;99.90
34201;DHT22;20469;55.638;37.670;2022-08-18T00:39:50;20.90;99.90
34201;DHT22;20469;55.638;37.670;2022-08-18T00:42:22;20.90;99.90
34201;DHT22;20469;55.638;37.670;2022-08-18T00:45:01;20.90;99.90
34201;DHT22;20469;55.638;37.670;2022-08-18T00:47:31;20.90;99.90
34201;DHT22;20469;55.638;37.670;2022-08-18T00:50:26;20.90;99.90
34201;DHT22;20469;55.638;37.670;2022-08-18T00:55:39;20.90;99.90
34201;DHT22;20469;55.638;37.670;2022-08-18T00:58:33;20.80;99.90
34201;DHT22;20469;55.638;37.670;2022-08-18T01:01:04;20.80;99.90
34201;DHT22;20469;55.638;37.670;2022-08-18T01:03:33;20.70;99.90
34201;DHT22;20469;55.638;37.670;2022-08-18T01:06:24;20.70;99.90
34201;DHT22;20469;55.638;37.670;2022-08-18T01:08:53;20.60;99.90
34201;DHT22;20469;55.638;37.670;2022-08-18T01:11:22;20.60;99.90
34201;DHT22;20469;55.638;37.670;2022-08-18T01:13:49;20.40;99.90
34201;DHT22;20469;55.638;37.670;2022-08-18T01:16:17;20.40;99.90
34201;DHT22;20469;55.638;37.670;2022-08-18T01:19:21;20.20;99.90
34201;DHT22;20469;55.638;37.670;2022-08-18T01:22:21;20.10;99.90
34201;DHT22;20469;55.638;37.670;2022-08-18T01:24:51;20.10;99.90
34201;DHT22;20469;55.638;37.670;2022-08-18T01:27:53;20.20;99.90
34201;DHT22;20469;55.638;37.670;2022-08-18T01:30:27;20.30;99.90
34201;DHT22;20469;55.638;37.670;2022-08-18T01:32:55;20.40;99.90
34201;DHT22;20469;55.638;37.670;2022-08-18T01:35:25;20.30;99.90
34201;DHT22;20469;55.638;37.670;2022-08-18T01:37:53;20.30;99.90
34201;DHT22;20469;55.638;37.670;2022-08-18T01:40:22;20.40;99.90
34201;DHT22;20469;55.638;37.670;2022-08-18T01:43:10;20.40;99.90
34201;DHT22;20469;55.638;37.670;2022-08-18T01:45:38;20.40;99.90
34201;DHT22;20469;55.638;37.670;2022-08-18T01:48:05;20.20;99.90
34201;DHT22;20469;55.638;37.670;2022-08-18T01:50:33;20.20;99.90
34201;DHT22;20469;55.638;37.670;2022-08-18T01:53:03;20.10;99.90
34201;DHT22;20469;55.638;37.670;2022-08-18T01:55:34;19.90;99.90
34201;DHT22;20469;55.638;37.670;2022-08-18T01:58:01;20.00;99.90
34201;DHT22;20469;55.638;37.670;2022-08-18T02:00:28;19.90;99.90
34201;DHT22;20469;55.638;37.670;2022-08-18T02:02:56;19.80;99.90
34201;DHT22;20469;55.638;37.670;2022-08-18T02:05:37;19.70;99.90
34201;DHT22;20469;55.638;37.670;2022-08-18T02:08:05;19.80;99.90
34201;DHT22;20469;55.638;37.670;2022-08-18T02:10:33;19.80;99.90
34201;DHT22;20469;55.638;37.670;2022-08-18T02:13:01;19.70;99.90
34201;DHT22;20469;55.638;37.670;2022-08-18T02:15:28;19.60;99.90
34201;DHT22;20469;55.638;37.670;2022-08-18T02:17:55;19.80;99.90
34201;DHT22;20469;55.638;37.670;2022-08-18T02:20:23;19.70;99.90
34201;DHT22;20469;55.638;37.670;2022-08-18T02:22:51;20.00;99.90
34201;DHT22;20469;55.638;37.670;2022-08-18T02:25:18;19.90;99.90
34201;DHT22;20469;55.638;37.670;2022-08-18T02:27:46;19.90;99.90
34201;DHT22;20469;55.638;37.670;2022-08-18T02:30:18;20.00;99.90
34201;DHT22;20469;55.638;37.670;2022-08-18T02:32:45;19.90;99.90
34201;DHT22;20469;55.638;37.670;2022-08-18T02:35:13;20.00;99.90
34201;DHT22;20469;55.638;37.670;2022-08-18T02:37:40;19.90;99.90
34201;DHT22;20469;55.638;37.670;2022-08-18T02:40:09;19.80;99.90
34201;DHT22;20469;55.638;37.670;2022-08-18T02:42:44;20.10;99.90
34201;DHT22;20469;55.638;37.670;2022-08-18T02:45:12;20.00;99.90
34201;DHT22;20469;55.638;37.670;2022-08-18T02:47:41;20.10;99.90
34201;DHT22;20469;55.638;37.670;2022-08-18T02:50:11;20.10;99.90
34201;DHT22;20469;55.638;37.670;2022-08-18T02:52:39;20.10;99.90
34201;DHT22;20469;55.638;37.670;2022-08-18T02:55:08;20.00;99.90
34201;DHT22;20469;55.638;37.670;2022-08-18T02:57:41;19.90;99.90
34201;DHT22;20469;55.638;37.670;2022-08-18T03:00:11;20.00;99.90
34201;DHT22;20469;55.638;37.670;2022-08-18T03:02:44;20.10;99.90
34201;DHT22;20469;55.638;37.670;2022-08-18T03:05:11;20.10;99.90
34201;DHT22;20469;55.638;37.670;2022-08-18T03:07:40;20.20;99.90
34201;DHT22;20469;55.638;37.670;2022-08-18T03:10:08;20.10;99.90
34201;DHT22;20469;55.638;37.670;2022-08-18T03:12:56;20.20;99.90
34201;DHT22;20469;55.638;37.670;2022-08-18T03:15:23;20.20;99.90
34201;DHT22;20469;55.638;37.670;2022-08-18T03:17:53;20.20;99.90
34201;DHT22;20469;55.638;37.670;2022-08-18T03:20:20;20.40;99.90
34201;DHT22;20469;55.638;37.670;2022-08-18T03:22:57;20.50;99.90
34201;DHT22;20469;55.638;37.670;2022-08-18T03:25:24;20.40;99.90
34201;DHT22;20469;55.638;37.670;2022-08-18T03:27:51;20.30;99.90
34201;DHT22;20469;55.638;37.670;2022-08-18T03:30:19;20.30;99.90
34201;DHT22;20469;55.638;37.670;2022-08-18T03:32:46;20.10;99.90
34201;DHT22;20469;55.638;37.670;2022-08-18T03:35:13;20.20;99.90
34201;DHT22;20469;55.638;37.670;2022-08-18T03:37:42;20.30;99.90
34201;DHT22;20469;55.638;37.670;2022-08-18T03:40:09;20.10;99.90
34201;DHT22;20469;55.638;37.670;2022-08-18T03:42:37;20.20;99.90
34201;DHT22;20469;55.638;37.670;2022-08-18T03:45:13;20.30;99.90
34201;DHT22;20469;55.638;37.670;2022-08-18T03:47:44;20.40;99.90
34201;DHT22;20469;55.638;37.670;2022-08-18T03:50:12;20.30;99.90
34201;DHT22;20469;55.638;37.670;2022-08-18T03:52:40;20.20;99.90
34201;DHT22;20469;55.638;37.670;2022-08-18T03:55:08;20.30;99.90
34201;DHT22;20469;55.638;37.670;2022-08-18T03:57:36;20.30;99.90
34201;DHT22;20469;55.638;37.670;2022-08-18T04:00:05;20.60;99.90
34201;DHT22;20469;55.638;37.670;2022-08-18T04:02:33;20.60;99.90
34201;DHT22;20469;55.638;37.670;2022-08-18T04:05:00;20.70;99.90
34201;DHT22;20469;55.638;37.670;2022-08-18T04:07:31;20.60;99.90
34201;DHT22;20469;55.638;37.670;2022-08-18T04:09:58;20.80;99.90
34201;DHT22;20469;55.638;37.670;2022-08-18T04:12:26;21.00;99.90
34201;DHT22;20469;55.638;37.670;2022-08-18T04:14:53;21.20;99.90
34201;DHT22;20469;55.638;37.670;2022-08-18T04:17:20;21.30;99.90
34201;DHT22;20469;55.638;37.670;2022-08-18T04:19:52;21.30;99.90
34201;DHT22;20469;55.638;37.670;2022-08-18T04:22:20;21.20;99.90
34201;DHT22;20469;55.638;37.670;2022-08-18T04:24:49;21.20;99.90
34201;DHT22;20469;55.638;37.670;2022-08-18T04:27:18;21.20;99.90
34201;DHT22;20469;55.638;37.670;2022-08-18T04:29:45;21.30;99.90
34201;DHT22;20469;55.638;37.670;2022-08-18T04:32:12;21.40;99.90
34201;DHT22;20469;55.638;37.670;2022-08-18T04:34:40;21.50;99.90
34201;DHT22;20469;55.638;37.670;2022-08-18T04:37:08;21.60;99.90
34201;DHT22;20469;55.638;37.670;2022-08-18T04:39:36;21.60;99.90
34201;DHT22;20469;55.638;37.670;2022-08-18T04:42:03;21.70;99.90
34201;DHT22;20469;55.638;37.670;2022-08-18T04:44:32;21.60;99.90
34201;DHT22;20469;55.638;37.670;2022-08-18T04:47:00;21.60;99.90
34201;DHT22;20469;55.638;37.670;2022-08-18T04:49:28;21.70;99.90
34201;DHT22;20469;55.638;37.670;2022-08-18T04:51:57;21.70;99.90
34201;DHT22;20469;55.638;37.670;2022-08-18T04:55:04;21.90;99.90
34201;DHT22;20469;55.638;37.670;2022-08-18T04:57:31;21.80;99.90
34201;DHT22;20469;55.638;37.670;2022-08-18T05:00:03;21.70;99.90
34201;DHT22;20469;55.638;37.670;2022-08-18T05:02:30;21.90;99.90
34201;DHT22;20469;55.638;37.670;2022-08-18T05:04:59;21.80;99.90
34201;DHT22;20469;55.638;37.670;2022-08-18T05:07:32;21.50;99.90
34201;DHT22;20469;55.638;37.670;2022-08-18T05:10:00;21.70;99.90
34201;DHT22;20469;55.638;37.670;2022-08-18T05:12:29;21.60;99.90
34201;DHT22;20469;55.638;37.670;2022-08-18T05:14:56;21.70;99.90
34201;DHT22;20469;55.638;37.670;2022-08-18T05:17:24;21.80;99.90
34201;DHT22;20469;55.638;37.670;2022-08-18T05:19:57;22.20;99.90
34201;DHT22;20469;55.638;37.670;2022-08-18T05:22:24;22.20;99.90
34201;DHT22;20469;55.638;37.670;2022-08-18T05:24:56;22.00;99.90
34201;DHT22;20469;55.638;37.670;2022-08-18T05:27:24;22.20;99.90
34201;DHT22;20469;55.638;37.670;2022-08-18T05:29:51;22.20;99.90
34201;DHT22;20469;55.638;37.670;2022-08-18T05:32:18;22.40;99.90
34201;DHT22;20469;55.638;37.670;2022-08-18T05:35:10;22.20;99.90
34201;DHT22;20469;55.638;37.670;2022-08-18T05:38:04;22.00;99.90
34201;DHT22;20469;55.638;37.670;2022-08-18T05:40:35;22.00;99.90
34201;DHT22;20469;55.638;37.670;2022-08-18T05:43:03;22.10;99.90
34201;DHT22;20469;55.638;37.670;2022-08-18T05:45:32;22.40;99.90
34201;DHT22;20469;55.638;37.670;2022-08-18T05:48:00;22.50;99.90
34201;DHT22;20469;55.638;37.670;2022-08-18T05:50:33;22.50;99.90
34201;DHT22;20469;55.638;37.670;2022-08-18T05:53:05;22.60;99.90
34201;DHT22;20469;55.638;37.670;2022-08-18T05:55:45;22.80;99.90
34201;DHT22;20469;55.638;37.670;2022-08-18T05:58:49;23.00;99.90
34201;DHT22;20469;55.638;37.670;2022-08-18T06:01:21;23.40;98.20
34201;DHT22;20469;55.638;37.670;2022-08-18T06:03:52;23.20;96.90
34201;DHT22;20469;55.638;37.670;2022-08-18T06:06:24;23.40;96.20
34201;DHT22;20469;55.638;37.670;2022-08-18T06:11:22;23.40;96.90
34201;DHT22;20469;55.638;37.670;2022-08-18T06:13:49;23.50;95.20
34201;DHT22;20469;55.638;37.670;2022-08-18T06:22:27;23.30;94.10
34201;DHT22;20469;55.638;37.670;2022-08-18T06:28:10;23.70;95.00
34201;DHT22;20469;55.638;37.670;2022-08-18T06:36:38;23.80;93.30
34201;DHT22;20469;55.638;37.670;2022-08-18T06:41:59;24.50;91.90
34201;DHT22;20469;55.638;37.670;2022-08-18T06:44:40;24.50;91.80
34201;DHT22;20469;55.638;37.670;2022-08-18T06:47:13;24.70;90.50
34201;DHT22;20469;55.638;37.670;2022-08-18T06:50:02;25.00;87.80
34201;DHT22;20469;55.638;37.670;2022-08-18T06:52:34;24.80;89.00
34201;DHT22;20469;55.638;37.670;2022-08-18T06:55:09;25.40;88.50
34201;DHT22;20469;55.638;37.670;2022-08-18T06:57:53;25.40;84.00
34201;DHT22;20469;55.638;37.670;2022-08-18T07:00:34;25.10;86.00
34201;DHT22;20469;55.638;37.670;2022-08-18T07:03:17;25.10;82.90
34201;DHT22;20469;55.638;37.670;2022-08-18T07:05:59;25.80;78.90
34201;DHT22;20469;55.638;37.670;2022-08-18T07:08:34;25.40;78.20
34201;DHT22;20469;55.638;37.670;2022-08-18T07:11:27;25.10;74.60
34201;DHT22;20469;55.638;37.670;2022-08-18T07:13:58;25.10;76.40
34201;DHT22;20469;55.638;37.670;2022-08-18T07:16:42;25.20;72.90
34201;DHT22;20469;55.638;37.670;2022-08-18T07:19:29;24.80;71.10
34201;DHT22;20469;55.638;37.670;2022-08-18T07:22:10;25.20;70.90
34201;DHT22;20469;55.638;37.670;2022-08-18T07:24:41;25.20;69.40
34201;DHT22;20469;55.638;37.670;2022-08-18T07:27:13;25.20;68.10
34201;DHT22;20469;55.638;37.670;2022-08-18T07:29:58;25.20;68.20
34201;DHT22;20469;55.638;37.670;2022-08-18T07:32:31;25.30;69.10
34201;DHT22;20469;55.638;37.670;2022-08-18T07:35:03;25.50;68.90
34201;DHT22;20469;55.638;37.670;2022-08-18T07:37:58;25.80;68.40
34201;DHT22;20469;55.638;37.670;2022-08-18T07:40:54;25.50;64.90
34201;DHT22;20469;55.638;37.670;2022-08-18T07:43:40;25.70;64.90
34201;DHT22;20469;55.638;37.670;2022-08-18T07:48:47;25.90;61.80
34201;DHT22;20469;55.638;37.670;2022-08-18T07:51:49;25.20;60.30
34201;DHT22;20469;55.638;37.670;2022-08-18T08:02:30;26.50;56.50
34201;DHT22;20469;55.638;37.670;2022-08-18T08:22:53;28.00;49.60
34201;DHT22;20469;55.638;37.670;2022-08-18T08:25:29;28.00;48.50
34201;DHT22;20469;55.638;37.670;2022-08-18T08:36:17;27.90;40.00
34201;DHT22;20469;55.638;37.670;2022-08-18T08:38:48;28.10;38.10
34201;DHT22;20469;55.638;37.670;2022-08-18T08:41:40;27.90;37.70
34201;DHT22;20469;55.638;37.670;2022-08-18T08:44:17;28.50;36.80
34201;DHT22;20469;55.638;37.670;2022-08-18T08:47:09;28.60;35.60
34201;DHT22;20469;55.638;37.670;2022-08-18T08:50:03;28.10;36.40
34201;DHT22;20469;55.638;37.670;2022-08-18T08:52:57;27.90;33.20
34201;DHT22;20469;55.638;37.670;2022-08-18T08:55:34;27.80;33.60
34201;DHT22;20469;55.638;37.670;2022-08-18T09:00:39;28.20;32.00
34201;DHT22;20469;55.638;37.670;2022-08-18T09:03:16;27.80;32.40
34201;DHT22;20469;55.638;37.670;2022-08-18T09:15:09;28.70;28.40
34201;DHT22;20469;55.638;37.670;2022-08-18T09:23:34;29.30;26.20
34201;DHT22;20469;55.638;37.670;2022-08-18T09:29:14;29.30;25.60
34201;DHT22;20469;55.638;37.670;2022-08-18T09:31:44;28.90;26.10
34201;DHT22;20469;55.638;37.670;2022-08-18T09:37:52;29.20;25.40
34201;DHT22;20469;55.638;37.670;2022-08-18T09:40:49;29.10;25.00
34201;DHT22;20469;55.638;37.670;2022-08-18T09:52:03;31.20;20.50
34201;DHT22;20469;55.638;37.670;2022-08-18T09:54:59;30.80;20.20
34201;DHT22;20469;55.638;37.670;2022-08-18T09:57:35;30.40;19.40
34201;DHT22;20469;55.638;37.670;2022-08-18T10:10:48;31.60;15.10
34201;DHT22;20469;55.638;37.670;2022-08-18T10:16:56;31.10;13.60
34201;DHT22;20469;55.638;37.670;2022-08-18T10:22:41;31.80;13.80
34201;DHT22;20469;55.638;37.670;2022-08-18T10:25:10;31.80;13.90
34201;DHT22;20469;55.638;37.670;2022-08-18T10:27:53;31.20;14.50
34201;DHT22;20469;55.638;37.670;2022-08-18T10:39:16;32.70;8.80
34201;DHT22;20469;55.638;37.670;2022-08-18T10:41:59;32.40;9.00
34201;DHT22;20469;55.638;37.670;2022-08-18T10:44:30;33.50;8.20
34201;DHT22;20469;55.638;37.670;2022-08-18T10:47:01;34.10;6.50
34201;DHT22;20469;55.638;37.670;2022-08-18T10:49:37;35.10;3.60
34201;DHT22;20469;55.638;37.670;2022-08-18T10:52:15;32.80;3.90
34201;DHT22;20469;55.638;37.670;2022-08-18T10:55:08;32.40;3.00
34201;DHT22;20469;55.638;37.670;2022-08-18T11:07:02;34.10;1.70
34201;DHT22;20469;55.638;37.670;2022-08-18T11:09:34;33.10;2.10
34201;DHT22;20469;55.638;37.670;2022-08-18T11:12:07;32.90;1.80
34201;DHT22;20469;55.638;37.670;2022-08-18T11:19:53;33.80;1.00
34201;DHT22;20469;55.638;37.670;2022-08-18T11:22:28;33.60;1.00
34201;DHT22;20469;55.638;37.670;2022-08-18T11:24:59;33.70;1.00
34201;DHT22;20469;55.638;37.670;2022-08-18T11:27:32;35.00;1.70
34201;DHT22;20469;55.638;37.670;2022-08-18T11:30:08;32.70;1.00
34201;DHT22;20469;55.638;37.670;2022-08-18T11:32:40;34.00;1.00
34201;DHT22;20469;55.638;37.670;2022-08-18T11:35:20;33.30;1.00
34201;DHT22;20469;55.638;37.670;2022-08-18T11:37:59;33.60;1.00
34201;DHT22;20469;55.638;37.670;2022-08-18T11:43:29;34.10;1.00
34201;DHT22;20469;55.638;37.670;2022-08-18T11:48:58;37.00;1.00
34201;DHT22;20469;55.638;37.670;2022-08-18T11:51:32;37.60;1.00
34201;DHT22;20469;55.638;37.670;2022-08-18T11:56:32;36.90;1.00
34201;DHT22;20469;55.638;37.670;2022-08-18T12:02:18;35.50;1.00
34201;DHT22;20469;55.638;37.670;2022-08-18T12:04:50;35.00;1.00
34201;DHT22;20469;55.638;37.670;2022-08-18T12:12:50;34.80;1.00
34201;DHT22;20469;55.638;37.670;2022-08-18T12:17:50;37.30;1.00
34201;DHT22;20469;55.638;37.670;2022-08-18T12:20:20;38.30;1.00
34201;DHT22;20469;55.638;37.670;2022-08-18T12:22:49;35.60;1.00
34201;DHT22;20469;55.638;37.670;2022-08-18T12:25:18;36.00;1.00
34201;DHT22;20469;55.638;37.670;2022-08-18T12:27:52;36.20;1.00
34201;DHT22;20469;55.638;37.670;2022-08-18T12:30:20;36.70;1.00
34201;DHT22;20469;55.638;37.670;2022-08-18T12:32:49;34.50;1.00
34201;DHT22;20469;55.638;37.670;2022-08-18T12:35:36;35.30;1.00
34201;DHT22;20469;55.638;37.670;2022-08-18T12:38:03;35.30;1.00
34201;DHT22;20469;55.638;37.670;2022-08-18T12:40:51;35.30;1.00
34201;DHT22;20469;55.638;37.670;2022-08-18T12:43:19;36.70;1.00
34201;DHT22;20469;55.638;37.670;2022-08-18T12:45:46;35.50;1.00
34201;DHT22;20469;55.638;37.670;2022-08-18T12:48:14;35.20;1.00
34201;DHT22;20469;55.638;37.670;2022-08-18T12:50:42;33.90;1.00
34201;DHT22;20469;55.638;37.670;2022-08-18T12:53:24;33.80;1.00
34201;DHT22;20469;55.638;37.670;2022-08-18T12:56:14;34.40;1.00
34201;DHT22;20469;55.638;37.670;2022-08-18T12:58:46;34.40;1.00
34201;DHT22;20469;55.638;37.670;2022-08-18T13:01:13;33.20;1.00
34201;DHT22;20469;55.638;37.670;2022-08-18T13:03:47;33.70;1.00
34201;DHT22;20469;55.638;37.670;2022-08-18T13:06:37;33.30;1.00
34201;DHT22;20469;55.638;37.670;2022-08-18T13:09:06;33.80;1.00
34201;DHT22;20469;55.638;37.670;2022-08-18T13:11:54;33.70;1.00
34201;DHT22;20469;55.638;37.670;2022-08-18T13:14:21;34.20;1.00
34201;DHT22;20469;55.638;37.670;2022-08-18T13:16:49;33.50;1.00
34201;DHT22;20469;55.638;37.670;2022-08-18T13:19:20;34.10;1.00
34201;DHT22;20469;55.638;37.670;2022-08-18T13:21:47;35.10;1.00
34201;DHT22;20469;55.638;37.670;2022-08-18T13:24:15;33.40;1.00
34201;DHT22;20469;55.638;37.670;2022-08-18T13:26:48;34.90;1.00
34201;DHT22;20469;55.638;37.670;2022-08-18T13:29:17;35.40;1.00
34201;DHT22;20469;55.638;37.670;2022-08-18T13:31:45;35.60;1.00
34201;DHT22;20469;55.638;37.670;2022-08-18T13:34:24;34.90;1.00
34201;DHT22;20469;55.638;37.670;2022-08-18T13:36:56;35.80;1.00
34201;DHT22;20469;55.638;37.670;2022-08-18T13:39:24;35.10;1.00
34201;DHT22;20469;55.638;37.670;2022-08-18T13:42:00;34.50;1.00
34201;DHT22;20469;55.638;37.670;2022-08-18T13:44:48;34.30;1.00
34201;DHT22;20469;55.638;37.670;2022-08-18T13:47:20;34.30;1.00
34201;DHT22;20469;55.638;37.670;2022-08-18T13:49:50;34.20;1.00
34201;DHT22;20469;55.638;37.670;2022-08-18T13:52:26;35.60;1.00
34201;DHT22;20469;55.638;37.670;2022-08-18T13:55:14;35.40;1.00
34201;DHT22;20469;55.638;37.670;2022-08-18T13:57:44;35.60;1.00
34201;DHT22;20469;55.638;37.670;2022-08-18T14:00:20;34.40;1.00
34201;DHT22;20469;55.638;37.670;2022-08-18T14:02:57;35.70;1.00
34201;DHT22;20469;55.638;37.670;2022-08-18T14:05:29;35.90;1.00
34201;DHT22;20469;55.638;37.670;2022-08-18T14:08:17;35.20;1.00
34201;DHT22;20469;55.638;37.670;2022-08-18T14:10:52;33.30;1.00
34201;DHT22;20469;55.638;37.670;2022-08-18T14:13:20;32.80;1.00
34201;DHT22;20469;55.638;37.670;2022-08-18T14:15:52;33.20;1.00
34201;DHT22;20469;55.638;37.670;2022-08-18T14:18:23;33.50;1.00
34201;DHT22;20469;55.638;37.670;2022-08-18T14:20:55;34.80;1.00
34201;DHT22;20469;55.638;37.670;2022-08-18T14:23:42;35.20;1.00
34201;DHT22;20469;55.638;37.670;2022-08-18T14:26:28;35.10;1.00
34201;DHT22;20469;55.638;37.670;2022-08-18T14:29:17;33.60;1.00
34201;DHT22;20469;55.638;37.670;2022-08-18T14:32:05;33.40;1.00
34201;DHT22;20469;55.638;37.670;2022-08-18T14:34:33;34.60;1.00
34201;DHT22;20469;55.638;37.670;2022-08-18T14:37:02;34.50;1.00
34201;DHT22;20469;55.638;37.670;2022-08-18T14:39:29;32.30;1.00
34201;DHT22;20469;55.638;37.670;2022-08-18T14:41:56;31.00;1.00
34201;DHT22;20469;55.638;37.670;2022-08-18T14:44:24;29.80;1.00
34201;DHT22;20469;55.638;37.670;2022-08-18T14:46:58;29.60;1.00
34201;DHT22;20469;55.638;37.670;2022-08-18T14:49:26;29.60;1.00
34201;DHT22;20469;55.638;37.670;2022-08-18T14:52:15;29.60;1.00
34201;DHT22;20469;55.638;37.670;2022-08-18T14:54:42;29.70;1.00
34201;DHT22;20469;55.638;37.670;2022-08-18T14:57:16;29.90;1.00
34201;DHT22;20469;55.638;37.670;2022-08-18T14:59:44;29.70;1.00
34201;DHT22;20469;55.638;37.670;2022-08-18T15:02:13;29.60;1.60
34201;DHT22;20469;55.638;37.670;2022-08-18T15:04:41;29.90;1.00
34201;DHT22;20469;55.638;37.670;2022-08-18T15:07:23;29.50;1.00
34201;DHT22;20469;55.638;37.670;2022-08-18T15:09:51;29.20;1.00
34201;DHT22;20469;55.638;37.670;2022-08-18T15:12:39;29.00;1.00
34201;DHT22;20469;55.638;37.670;2022-08-18T15:15:10;29.00;1.00
34201;DHT22;20469;55.638;37.670;2022-08-18T15:17:44;29.10;1.00
34201;DHT22;20469;55.638;37.670;2022-08-18T15:20:18;29.00;1.00
34201;DHT22;20469;55.638;37.670;2022-08-18T15:22:59;29.00;1.00
34201;DHT22;20469;55.638;37.670;2022-08-18T15:25:53;28.80;1.20
34201;DHT22;20469;55.638;37.670;2022-08-18T15:28:23;28.60;2.00
34201;DHT22;20469;55.638;37.670;2022-08-18T15:30:53;28.60;1.50
34201;DHT22;20469;55.638;37.670;2022-08-18T15:33:43;28.40;2.00
34201;DHT22;20469;55.638;37.670;2022-08-18T15:36:17;28.20;2.10
34201;DHT22;20469;55.638;37.670;2022-08-18T15:38:55;28.30;2.20
34201;DHT22;20469;55.638;37.670;2022-08-18T15:41:31;28.30;2.70
34201;DHT22;20469;55.638;37.670;2022-08-18T15:44:02;28.50;2.70
34201;DHT22;20469;55.638;37.670;2022-08-18T15:46:34;28.10;2.60
34201;DHT22;20469;55.638;37.670;2022-08-18T15:49:04;28.20;2.70
34201;DHT22;20469;55.638;37.670;2022-08-18T15:51:39;28.10;3.10
34201;DHT22;20469;55.638;37.670;2022-08-18T15:54:11;28.00;2.80
34201;DHT22;20469;55.638;37.670;2022-08-18T15:56:38;27.90;2.90
34201;DHT22;20469;55.638;37.670;2022-08-18T15:59:09;27.90;2.90
34201;DHT22;20469;55.638;37.670;2022-08-18T16:01:38;28.00;2.70
34201;DHT22;20469;55.638;37.670;2022-08-18T16:04:09;28.00;2.80
34201;DHT22;20469;55.638;37.670;2022-08-18T16:06:37;28.00;3.10
34201;DHT22;20469;55.638;37.670;2022-08-18T16:09:07;28.00;3.30
34201;DHT22;20469;55.638;37.670;2022-08-18T16:11:34;27.90;3.60
34201;DHT22;20469;55.638;37.670;2022-08-18T16:14:02;27.90;4.10
34201;DHT22;20469;55.638;37.670;2022-08-18T16:16:29;27.70;4.50
34201;DHT22;20469;55.638;37.670;2022-08-18T16:19:03;27.70;4.80
34201;DHT22;20469;55.638;37.670;2022-08-18T16:21:31;27.70;5.10
34201;DHT22;20469;55.638;37.670;2022-08-18T16:23:58;27.60;5.80
34201;DHT22;20469;55.638;37.670;2022-08-18T16:26:26;27.50;6.40
34201;DHT22;20469;55.638;37.670;2022-08-18T16:28:53;27.50;6.70
34201;DHT22;20469;55.638;37.670;2022-08-18T16:31:21;27.50;7.20
34201;DHT22;20469;55.638;37.670;2022-08-18T16:33:53;27.40;8.10
34201;DHT22;20469;55.638;37.670;2022-08-18T16:36:22;27.50;8.50
34201;DHT22;20469;55.638;37.670;2022-08-18T16:38:53;27.40;9.00
34201;DHT22;20469;55.638;37.670;2022-08-18T16:41:24;27.30;9.60
34201;DHT22;20469;55.638;37.670;2022-08-18T16:43:52;27.30;10.30
34201;DHT22;20469;55.638;37.670;2022-08-18T16:46:22;27.30;10.80
34201;DHT22;20469;55.638;37.670;2022-08-18T16:48:53;27.30;11.10
34201;DHT22;20469;55.638;37.670;2022-08-18T16:51:23;27.20;11.70
34201;DHT22;20469;55.638;37.670;2022-08-18T16:53:52;27.10;12.10
34201;DHT22;20469;55.638;37.670;2022-08-18T16:56:24;27.10;12.40
34201;DHT22;20469;55.638;37.670;2022-08-18T16:58:52;27.10;12.60
34201;DHT22;20469;55.638;37.670;2022-08-18T17:01:39;27.10;13.30
34201;DHT22;20469;55.638;37.670;2022-08-18T17:04:28;26.90;14.10
34201;DHT22;20469;55.638;37.670;2022-08-18T17:06:56;27.00;14.70
34201;DHT22;20469;55.638;37.670;2022-08-18T17:09:24;26.80;15.10
34201;DHT22;20469;55.638;37.670;2022-08-18T17:11:52;26.70;15.50
34201;DHT22;20469;55.638;37.670;2022-08-18T17:14:22;26.60;16.40
34201;DHT22;20469;55.638;37.670;2022-08-18T17:16:51;26.70;16.50
34201;DHT22;20469;55.638;37.670;2022-08-18T17:19:22;26.50;16.90
34201;DHT22;20469;55.638;37.670;2022-08-18T17:21:50;26.30;17.00
34201;DHT22;20469;55.638;37.670;2022-08-18T17:24:17;26.20;17.60
34201;DHT22;20469;55.638;37.670;2022-08-18T17:27:12;26.20;17.60
34201;DHT22;20469;55.638;37.670;2022-08-18T17:30:07;26.10;18.10
34201;DHT22;20469;55.638;37.670;2022-08-18T17:32:57;26.10;18.40
34201;DHT22;20469;55.638;37.670;2022-08-18T17:35:37;26.30;19.30
34201;DHT22;20469;55.638;37.670;2022-08-18T17:38:34;25.90;19.90
34201;DHT22;20469;55.638;37.670;2022-08-18T17:41:05;25.80;20.50
34201;DHT22;20469;55.638;37.670;2022-08-18T17:43:36;25.80;20.70
34201;DHT22;20469;55.638;37.670;2022-08-18T17:46:28;25.70;21.30
34201;DHT22;20469;55.638;37.670;2022-08-18T17:51:52;25.70;22.10
34201;DHT22;20469;55.638;37.670;2022-08-18T17:54:35;25.60;22.50
34201;DHT22;20469;55.638;37.670;2022-08-18T17:57:28;25.50;22.90
34201;DHT22;20469;55.638;37.670;2022-08-18T18:00:06;25.50;23.10
34201;DHT22;20469;55.638;37.670;2022-08-18T18:02:43;25.50;23.20
34201;DHT22;20469;55.638;37.670;2022-08-18T18:05:17;25.40;23.50
34201;DHT22;20469;55.638;37.670;2022-08-18T18:13:27;25.30;24.40
34201;DHT22;20469;55.638;37.670;2022-08-18T18:16:00;25.30;24.40
34201;DHT22;20469;55.638;37.670;2022-08-18T18:18:40;25.30;24.30
34201;DHT22;20469;55.638;37.670;2022-08-18T18:23:42;25.10;24.90
34201;DHT22;20469;55.638;37.670;2022-08-18T18:26:32;25.10;25.70
34201;DHT22;20469;55.638;37.670;2022-08-18T18:37:42;24.80;28.00
34201;DHT22;20469;55.638;37.670;2022-08-18T18:40:52;24.80;27.70
34201;DHT22;20469;55.638;37.670;2022-08-18T18:48:59;24.80;28.90
34201;DHT22;20469;55.638;37.670;2022-08-18T18:54:59;24.80;29.10
34201;DHT22;20469;55.638;37.670;2022-08-18T18:57:43;24.70;29.30
34201;DHT22;20469;55.638;37.670;2022-08-18T19:03:56;24.50;29.90
34201;DHT22;20469;55.638;37.670;2022-08-18T19:09:05;24.50;32.80
34201;DHT22;20469;55.638;37.670;2022-08-18T19:14:38;24.30;32.40